createdAt,value
2019-04-10T00:01:40.971Z,99.90
2019-04-10T00:04:23.114Z,99.90
2019-04-10T00:07:12.705Z,99.90
2019-04-10T00:09:49.557Z,99.90
2019-04-10T00:12:31.810Z,99.90
2019-04-10T00:15:16.044Z,99.90
2019-04-10T00:17:57.695Z,99.90
2019-04-10T00:20:39.181Z,99.90
2019-04-10T00:23:21.022Z,99.90
2019-04-10T00:26:03.525Z,99.90
2019-04-10T00:28:45.177Z,99.90
2019-04-10T00:31:26.782Z,99.90
2019-04-10T00:34:09.419Z,99.90
2019-04-10T00:36:51.292Z,99.90
2019-04-10T00:39:32.792Z,99.90
2019-04-10T00:42:03.026Z,99.90
2019-04-10T00:45:02.079Z,99.90
2019-04-10T00:47:51.073Z,99.90
2019-04-10T00:50:32.770Z,99.90
2019-04-10T00:53:17.558Z,99.90
2019-04-10T00:55:59.821Z,99.90
2019-04-10T00:58:41.806Z,99.90
2019-04-10T01:01:23.725Z,99.90
2019-04-10T01:04:06.861Z,99.90
2019-04-10T01:06:48.425Z,99.90
2019-04-10T01:09:31.116Z,99.90
2019-04-10T01:12:13.920Z,99.90
2019-04-10T01:14:56.149Z,99.90
2019-04-10T01:17:38.221Z,99.90
2019-04-10T01:20:19.916Z,99.90
2019-04-10T01:23:01.843Z,99.90
2019-04-10T01:25:43.574Z,99.90
2019-04-10T01:28:25.466Z,99.90
2019-04-10T01:31:05.174Z,99.90
2019-04-10T01:33:54.804Z,99.90
2019-04-10T01:36:56.678Z,99.90
2019-04-10T01:39:38.571Z,99.90
2019-04-10T01:42:20.678Z,99.90
2019-04-10T01:45:02.878Z,99.90
2019-04-10T01:47:44.091Z,99.90
2019-04-10T01:50:26.376Z,99.90
2019-04-10T01:53:07.817Z,99.90
2019-04-10T01:55:49.277Z,99.90
2019-04-10T01:58:31.317Z,99.90
2019-04-10T02:01:14.941Z,99.90
2019-04-10T02:03:56.335Z,99.90
2019-04-10T02:06:37.839Z,99.90
2019-04-10T02:09:19.680Z,99.90
2019-04-10T02:12:02.129Z,99.90
2019-04-10T02:14:44.700Z,99.90
2019-04-10T02:17:26.038Z,99.90
2019-04-10T02:20:08.114Z,99.90
2019-04-10T02:22:50.082Z,99.90
2019-04-10T02:25:30.602Z,99.90
2019-04-10T02:28:19.354Z,99.90
2019-04-10T02:31:00.754Z,99.90
2019-04-10T02:33:42.984Z,99.90
2019-04-10T02:36:26.852Z,99.90
2019-04-10T02:39:17.596Z,99.90
2019-04-10T02:41:56.373Z,99.90
2019-04-10T02:44:38.251Z,99.90
2019-04-10T02:47:21.123Z,99.90
2019-04-10T02:50:05.190Z,99.90
2019-04-10T02:52:48.220Z,99.90
2019-04-10T02:55:31.262Z,99.90
2019-04-10T02:58:14.221Z,99.90
2019-04-10T03:00:56.355Z,99.90
2019-04-10T03:03:38.419Z,99.90
2019-04-10T03:06:22.865Z,99.90
2019-04-10T03:09:18.941Z,99.90
2019-04-10T03:11:49.729Z,99.90
2019-04-10T03:14:32.606Z,99.90
2019-04-10T03:17:14.045Z,99.90
2019-04-10T03:19:56.069Z,99.90
2019-04-10T03:22:37.919Z,99.90
2019-04-10T03:25:19.487Z,99.90
2019-04-10T03:28:01.399Z,99.90
2019-04-10T03:30:44.338Z,99.90
2019-04-10T03:33:31.196Z,99.90
2019-04-10T03:36:11.461Z,99.90
2019-04-10T03:39:00.146Z,99.90
2019-04-10T03:41:36.601Z,99.90
2019-04-10T03:44:18.729Z,99.90
2019-04-10T03:47:00.786Z,99.90
2019-04-10T03:49:42.470Z,99.90
2019-04-10T03:52:23.639Z,99.90
2019-04-10T03:55:05.569Z,99.90
2019-04-10T03:57:47.230Z,99.90
2019-04-10T04:00:29.986Z,99.90
2019-04-10T04:03:11.419Z,99.90
2019-04-10T04:05:53.174Z,99.90
2019-04-10T04:08:35.338Z,99.90
2019-04-10T04:11:17.597Z,99.90
2019-04-10T04:13:59.794Z,99.90
2019-04-10T04:16:41.814Z,99.90
2019-04-10T04:19:24.100Z,99.90
2019-04-10T04:22:06.136Z,99.90
2019-04-10T04:24:48.196Z,99.90
2019-04-10T04:27:29.653Z,99.90
2019-04-10T04:30:12.397Z,99.90
2019-04-10T04:32:54.352Z,99.90
2019-04-10T04:35:36.620Z,99.90
2019-04-10T04:38:19.769Z,99.90
2019-04-10T04:41:04.142Z,99.90
2019-04-10T04:43:49.075Z,99.90
2019-04-10T04:46:32.383Z,99.90
2019-04-10T04:49:14.308Z,99.90
2019-04-10T04:51:56.099Z,99.90
2019-04-10T04:54:43.312Z,99.90
2019-04-10T04:57:29.153Z,99.90
2019-04-10T05:00:10.710Z,99.90
2019-04-10T05:02:53.703Z,99.90
2019-04-10T05:05:35.685Z,99.90
2019-04-10T05:08:17.442Z,99.90
2019-04-10T05:10:58.822Z,99.90
2019-04-10T05:13:40.795Z,99.90
2019-04-10T05:16:22.826Z,99.90
2019-04-10T05:19:04.924Z,99.90
2019-04-10T05:21:47.808Z,99.90
2019-04-10T05:24:30.049Z,99.90
2019-04-10T05:27:12.155Z,99.90
2019-04-10T05:29:53.894Z,99.90
2019-04-10T05:32:35.969Z,99.90
2019-04-10T05:35:17.989Z,99.90
2019-04-10T05:38:00.242Z,99.90
2019-04-10T05:40:42.237Z,99.90
2019-04-10T05:43:24.033Z,99.90
2019-04-10T05:46:05.861Z,99.90
2019-04-10T05:48:49.039Z,99.90
2019-04-10T05:51:30.946Z,99.90
2019-04-10T05:54:12.810Z,99.90
2019-04-10T05:56:54.673Z,99.90
2019-04-10T05:59:36.301Z,99.90
2019-04-10T06:02:18.173Z,99.90
2019-04-10T06:05:02.344Z,99.90
2019-04-10T06:07:48.281Z,99.90
2019-04-10T06:10:34.172Z,99.90
2019-04-10T06:13:17.432Z,99.90
2019-04-10T06:15:59.381Z,99.90
2019-04-10T06:18:40.591Z,99.90
2019-04-10T06:21:23.014Z,99.90
2019-04-10T06:24:05.841Z,99.90
2019-04-10T06:26:47.948Z,99.90
2019-04-10T06:29:30.774Z,99.90
2019-04-10T06:32:13.531Z,99.90
2019-04-10T06:34:55.410Z,99.90
2019-04-10T06:37:37.996Z,99.90
2019-04-10T06:40:23.858Z,99.90
2019-04-10T06:43:03.032Z,99.90
2019-04-10T06:45:44.212Z,99.90
2019-04-10T06:48:25.896Z,99.90
2019-04-10T06:51:08.198Z,99.90
2019-04-10T06:54:00.120Z,99.90
2019-04-10T06:56:33.433Z,99.90
2019-04-10T06:59:15.191Z,99.90
2019-04-10T07:02:11.383Z,99.90
2019-04-10T07:04:46.030Z,99.90
2019-04-10T07:07:27.178Z,99.90
2019-04-10T07:10:21.425Z,99.90
2019-04-10T07:12:49.884Z,99.90
2019-04-10T07:15:31.950Z,99.90
2019-04-10T07:18:16.783Z,99.90
2019-04-10T07:20:59.905Z,99.90
2019-04-10T07:23:40.655Z,99.90
2019-04-10T07:26:34.578Z,99.90
2019-04-10T07:29:06.190Z,99.90
2019-04-10T07:31:50.914Z,99.90
2019-04-10T07:34:32.476Z,99.90
2019-04-10T07:37:17.717Z,99.90
2019-04-10T07:39:59.760Z,99.90
2019-04-10T07:42:43.053Z,99.90
2019-04-10T07:45:27.646Z,99.90
2019-04-10T07:48:10.643Z,99.90
2019-04-10T07:50:53.551Z,99.90
2019-04-10T07:53:35.307Z,99.90
2019-04-10T07:56:20.398Z,99.90
2019-04-10T07:59:00.572Z,99.90
2019-04-10T08:01:42.447Z,99.90
2019-04-10T08:04:24.225Z,99.90
2019-04-10T08:07:05.456Z,99.90
2019-04-10T08:09:47.197Z,99.90
2019-04-10T08:12:39.369Z,99.90
2019-04-10T08:15:11.366Z,99.90
2019-04-10T08:17:53.942Z,99.90
2019-04-10T08:20:35.923Z,99.90
2019-04-10T08:23:17.687Z,99.90
2019-04-10T08:26:00.016Z,99.90
2019-04-10T08:28:41.642Z,99.90
2019-04-10T08:31:23.865Z,99.90
2019-04-10T08:34:06.565Z,99.90
2019-04-10T08:36:51.068Z,99.90
2019-04-10T08:39:37.779Z,99.90
2019-04-10T08:42:14.831Z,99.90
2019-04-10T08:44:56.422Z,99.90
2019-04-10T08:47:38.149Z,99.90
2019-04-10T08:50:20.115Z,99.90
2019-04-10T08:53:02.118Z,99.90
2019-04-10T08:55:44.145Z,99.90
2019-04-10T08:58:26.890Z,99.90
2019-04-10T09:01:09.195Z,99.90
2019-04-10T09:03:51.191Z,99.90
2019-04-10T09:06:33.605Z,99.90
2019-04-10T09:09:15.324Z,99.90
2019-04-10T09:11:57.623Z,99.90
2019-04-10T09:14:39.152Z,99.90
2019-04-10T09:17:21.024Z,99.90
2019-04-10T09:20:02.805Z,99.90
2019-04-10T09:23:07.490Z,99.90
2019-04-10T09:25:27.449Z,99.90
2019-04-10T09:28:09.194Z,99.90
2019-04-10T09:30:51.289Z,99.90
2019-04-10T09:33:33.149Z,99.90
2019-04-10T09:36:15.178Z,99.90
2019-04-10T09:38:56.950Z,99.90
2019-04-10T09:41:38.773Z,99.90
2019-04-10T09:44:18.696Z,99.90
2019-04-10T09:47:10.567Z,99.90
2019-04-10T09:49:53.471Z,99.90
2019-04-10T09:52:35.614Z,99.90
2019-04-10T09:55:18.004Z,99.90
2019-04-10T09:58:00.147Z,99.90
2019-04-10T10:00:41.797Z,99.90
2019-04-10T10:03:24.134Z,99.90
2019-04-10T10:06:05.349Z,99.90
2019-04-10T10:08:47.989Z,99.90
2019-04-10T10:11:30.615Z,99.90
2019-04-10T10:14:12.593Z,99.90
2019-04-10T10:16:54.290Z,99.90
2019-04-10T10:19:36.376Z,99.90
2019-04-10T10:22:18.050Z,99.90
2019-04-10T10:24:59.659Z,99.90
2019-04-10T10:27:40.948Z,99.90
2019-04-10T10:30:23.109Z,99.90
2019-04-10T10:33:05.609Z,99.90
2019-04-10T10:35:47.465Z,99.90
2019-04-10T10:38:29.437Z,99.90
2019-04-10T10:41:10.952Z,99.90
2019-04-10T10:43:52.992Z,99.90
2019-04-10T10:46:35.544Z,99.90
2019-04-10T10:49:18.036Z,99.90
2019-04-10T10:51:59.549Z,99.90
2019-04-10T10:54:41.393Z,99.90
2019-04-10T10:57:23.024Z,99.90
2019-04-10T11:00:04.356Z,99.90
2019-04-10T11:02:45.604Z,99.90
2019-04-10T11:05:27.358Z,99.90
2019-04-10T11:08:09.218Z,99.90
2019-04-10T11:10:55.230Z,99.90
2019-04-10T11:13:33.290Z,99.90
2019-04-10T11:16:04.316Z,99.90
2019-04-10T11:18:59.013Z,98.70
2019-04-10T11:21:47.277Z,96.70
2019-04-10T11:24:29.371Z,97.00
2019-04-10T11:27:11.970Z,96.00
2019-04-10T11:29:53.419Z,95.80
2019-04-10T11:32:36.609Z,95.70
2019-04-10T11:35:19.162Z,96.10
2019-04-10T11:38:02.816Z,94.90
2019-04-10T11:40:45.609Z,93.50
2019-04-10T11:43:27.956Z,90.10
2019-04-10T11:46:13.204Z,85.60
2019-04-10T11:48:55.427Z,84.30
2019-04-10T11:51:38.887Z,81.50
2019-04-10T11:57:06.206Z,87.30
2019-04-10T11:59:48.853Z,90.80
2019-04-10T12:02:32.287Z,92.90
2019-04-10T12:05:18.515Z,94.10
2019-04-10T12:08:22.146Z,96.50
2019-04-10T12:13:22.000Z,99.90
2019-04-10T12:16:03.657Z,99.90
2019-04-10T12:18:45.608Z,99.90
2019-04-10T12:21:27.995Z,99.90
2019-04-10T12:24:09.598Z,99.90
2019-04-10T12:26:51.915Z,99.90
2019-04-10T12:29:33.099Z,99.90
2019-04-10T12:32:14.816Z,99.70
2019-04-10T12:34:56.698Z,99.70
2019-04-10T12:37:39.185Z,98.10
2019-04-10T12:40:21.539Z,96.00
2019-04-10T12:43:03.080Z,95.10
2019-04-10T12:45:45.050Z,95.10
2019-04-10T12:48:27.032Z,94.50
2019-04-10T12:51:09.818Z,93.90
2019-04-10T12:53:51.990Z,91.90
2019-04-10T12:56:34.607Z,90.30
2019-04-10T12:59:15.866Z,88.80
2019-04-10T13:01:57.651Z,79.30
2019-04-10T13:04:38.823Z,79.30
2019-04-10T13:07:21.307Z,75.10
2019-04-10T13:10:02.949Z,74.90
2019-04-10T13:12:45.253Z,74.40
2019-04-10T13:15:27.599Z,77.10
2019-04-10T13:18:09.791Z,72.20
2019-04-10T13:20:51.402Z,69.50
2019-04-10T13:23:20.809Z,66.30
2019-04-10T13:26:10.892Z,68.80
2019-04-10T13:28:58.202Z,64.30
2019-04-10T13:31:39.673Z,58.80
2019-04-10T13:34:21.533Z,58.40
2019-04-10T13:36:51.585Z,54.60
2019-04-10T13:39:50.975Z,53.70
2019-04-10T13:42:39.617Z,52.90
2019-04-10T13:45:22.247Z,50.00
2019-04-10T13:48:03.971Z,49.90
2019-04-10T13:50:46.543Z,47.10
2019-04-10T13:53:28.390Z,46.40
2019-04-10T13:56:10.443Z,46.80
2019-04-10T13:58:52.990Z,44.90
2019-04-10T14:01:37.753Z,43.80
2019-04-10T14:04:19.921Z,43.80
2019-04-10T14:07:01.944Z,44.20
2019-04-10T14:09:48.888Z,43.30
2019-04-10T14:12:27.515Z,41.40
2019-04-10T14:15:09.837Z,40.40
2019-04-10T14:17:52.114Z,40.10
2019-04-10T14:20:35.441Z,38.90
2019-04-10T14:23:22.263Z,39.60
2019-04-10T14:26:24.447Z,40.10
2019-04-10T14:29:09.370Z,39.70
2019-04-10T14:31:56.619Z,38.30
2019-04-10T14:34:38.777Z,37.10
2019-04-10T14:37:21.183Z,37.60
2019-04-10T14:40:04.249Z,36.60
2019-04-10T14:42:47.290Z,35.90
2019-04-10T14:45:29.700Z,34.10
2019-04-10T14:48:12.312Z,35.30
2019-04-10T14:50:54.921Z,37.30
2019-04-10T14:53:37.259Z,38.60
2019-04-10T14:56:19.210Z,41.10
2019-04-10T14:58:59.739Z,44.30
2019-04-10T15:01:51.101Z,44.90
2019-04-10T15:04:51.783Z,45.10
2019-04-10T15:07:31.576Z,45.30
2019-04-10T15:10:12.979Z,44.90
2019-04-10T15:12:56.545Z,46.20
2019-04-10T15:15:38.776Z,44.80
2019-04-10T15:18:20.505Z,44.10
2019-04-10T15:21:02.802Z,44.40
2019-04-10T15:23:44.743Z,45.20
2019-04-10T15:26:26.226Z,42.70
2019-04-10T15:29:08.349Z,39.30
2019-04-10T15:31:50.286Z,36.60
2019-04-10T15:37:33.327Z,35.40
2019-04-10T15:40:20.866Z,33.90
2019-04-10T15:43:00.803Z,33.20
2019-04-10T15:45:44.092Z,35.50
2019-04-10T15:48:27.149Z,36.50
2019-04-10T15:51:08.755Z,38.20
2019-04-10T15:53:51.340Z,39.80
2019-04-10T15:56:33.906Z,39.20
2019-04-10T15:59:16.362Z,39.60
2019-04-10T16:01:57.865Z,40.20
2019-04-10T16:04:40.311Z,40.10
2019-04-10T16:07:22.554Z,40.20
2019-04-10T16:13:17.013Z,40.10
2019-04-10T16:16:01.026Z,39.60
2019-04-10T16:18:44.278Z,39.40
2019-04-10T16:21:26.915Z,38.10
2019-04-10T16:24:10.660Z,38.00
2019-04-10T16:26:41.126Z,36.40
2019-04-10T16:29:36.735Z,36.80
2019-04-10T16:32:19.243Z,36.90
2019-04-10T16:35:01.212Z,37.10
2019-04-10T16:37:44.043Z,36.00
2019-04-10T16:40:26.964Z,35.50
2019-04-10T16:43:09.015Z,35.50
2019-04-10T16:45:50.975Z,35.40
2019-04-10T16:48:33.867Z,36.10
2019-04-10T16:51:17.101Z,35.70
2019-04-10T16:54:00.089Z,36.30
2019-04-10T16:56:42.239Z,36.20
2019-04-10T16:59:23.694Z,36.10
2019-04-10T17:02:05.734Z,37.20
2019-04-10T17:04:47.989Z,38.80
2019-04-10T17:07:30.711Z,41.30
2019-04-10T17:10:19.394Z,44.30
2019-04-10T17:12:58.255Z,47.30
2019-04-10T17:15:40.146Z,48.20
2019-04-10T17:18:21.359Z,49.80
2019-04-10T17:21:02.721Z,50.80
2019-04-10T17:23:44.910Z,51.60
2019-04-10T17:26:26.699Z,52.60
2019-04-10T17:29:10.409Z,54.00
2019-04-10T17:31:52.925Z,54.40
2019-04-10T17:34:34.881Z,55.00
2019-04-10T17:37:16.355Z,55.90
2019-04-10T17:39:57.796Z,56.50
2019-04-10T17:42:39.412Z,56.90
2019-04-10T17:45:23.069Z,57.30
2019-04-10T17:48:05.266Z,56.80
2019-04-10T17:50:48.017Z,56.90
2019-04-10T17:53:29.583Z,56.50
2019-04-10T17:56:11.759Z,56.60
2019-04-10T17:58:54.053Z,57.00
2019-04-10T18:01:36.734Z,57.60
2019-04-10T18:04:18.265Z,57.80
2019-04-10T18:06:59.992Z,57.70
2019-04-10T18:09:43.060Z,58.10
2019-04-10T18:12:24.772Z,58.40
2019-04-10T18:15:06.446Z,58.70
2019-04-10T18:17:49.242Z,59.30
2019-04-10T18:20:31.632Z,59.10
2019-04-10T18:23:13.682Z,58.90
2019-04-10T18:25:55.694Z,58.80
2019-04-10T18:28:37.996Z,59.10
2019-04-10T18:31:23.560Z,59.60
2019-04-10T18:34:07.063Z,59.90
2019-04-10T18:36:48.501Z,60.20
2019-04-10T18:39:30.439Z,60.50
2019-04-10T18:42:15.130Z,60.40
2019-04-10T18:44:57.519Z,61.00
2019-04-10T18:47:39.438Z,62.60
2019-04-10T18:50:22.342Z,61.70
2019-04-10T18:53:03.811Z,62.60
2019-04-10T18:55:46.791Z,63.30
2019-04-10T18:58:31.631Z,63.30
2019-04-10T19:01:32.417Z,63.80
2019-04-10T19:04:16.515Z,64.60
2019-04-10T19:06:59.042Z,65.80
2019-04-10T19:09:41.008Z,66.90
2019-04-10T19:12:22.573Z,67.10
2019-04-10T19:15:04.478Z,67.60
2019-04-10T19:17:46.841Z,69.50
2019-04-10T19:20:29.096Z,71.00
2019-04-10T19:23:10.460Z,73.80
2019-04-10T19:25:52.136Z,78.90
2019-04-10T19:28:37.627Z,86.20
2019-04-10T19:31:21.231Z,90.50
2019-04-10T19:33:51.185Z,92.60
2019-04-10T19:36:46.595Z,94.80
2019-04-10T19:39:29.909Z,96.70
2019-04-10T19:42:11.471Z,96.90
2019-04-10T19:44:53.186Z,98.40
2019-04-10T19:47:35.191Z,97.80
2019-04-10T19:50:17.386Z,98.80
2019-04-10T19:52:59.090Z,99.00
2019-04-10T19:55:42.093Z,98.90
2019-04-10T19:58:23.414Z,98.60
2019-04-10T20:01:06.984Z,98.60
2019-04-10T20:03:48.670Z,98.30
2019-04-10T20:06:30.140Z,98.90
2019-04-10T20:09:12.482Z,98.30
2019-04-10T20:11:56.168Z,98.50
2019-04-10T20:14:38.766Z,98.20
2019-04-10T20:17:20.065Z,98.10
2019-04-10T20:20:02.750Z,97.80
2019-04-10T20:22:44.611Z,98.00
2019-04-10T20:25:26.522Z,98.50
2019-04-10T20:28:08.880Z,98.70
2019-04-10T20:30:53.732Z,98.50
2019-04-10T20:33:34.643Z,98.00
2019-04-10T20:36:17.208Z,98.20
2019-04-10T20:38:59.095Z,98.00
2019-04-10T20:41:49.812Z,98.60
2019-04-10T20:44:24.879Z,98.80
2019-04-10T20:47:06.891Z,99.90
2019-04-10T20:49:48.823Z,99.90
2019-04-10T20:52:30.392Z,99.90
2019-04-10T20:55:13.144Z,99.90
2019-04-10T20:57:54.521Z,99.90
2019-04-10T21:00:38.623Z,99.90
2019-04-10T21:03:09.262Z,99.90
2019-04-10T21:06:18.090Z,99.90
2019-04-10T21:08:59.618Z,99.90
2019-04-10T21:11:41.862Z,99.90
2019-04-10T21:14:25.980Z,99.90
2019-04-10T21:17:08.712Z,99.90
2019-04-10T21:19:50.046Z,99.90
2019-04-10T21:22:31.310Z,99.90
2019-04-10T21:25:13.308Z,99.90
2019-04-10T21:27:55.098Z,99.90
2019-04-10T21:30:42.445Z,99.90
2019-04-10T21:33:25.216Z,99.90
2019-04-10T21:36:07.241Z,99.90
2019-04-10T21:38:50.578Z,99.90
2019-04-10T21:41:32.669Z,99.90
2019-04-10T21:44:14.257Z,99.90
2019-04-10T21:46:55.806Z,99.90
2019-04-10T21:49:38.048Z,99.90
2019-04-10T21:52:20.564Z,99.90
2019-04-10T21:55:02.596Z,99.90
2019-04-10T21:57:44.790Z,99.90
2019-04-10T22:00:45.602Z,99.90
2019-04-10T22:03:27.561Z,99.90
2019-04-10T22:06:28.319Z,99.90
2019-04-10T22:09:12.656Z,99.90
2019-04-10T22:11:57.298Z,99.90
2019-04-10T22:14:39.688Z,99.90
2019-04-10T22:17:20.871Z,99.90
2019-04-10T22:20:03.367Z,99.90
2019-04-10T22:22:45.026Z,99.90
2019-04-10T22:25:27.623Z,99.90
2019-04-10T22:28:09.058Z,99.90
2019-04-10T22:30:50.935Z,99.90
2019-04-10T22:33:33.101Z,99.90
2019-04-10T22:36:15.057Z,99.90
2019-04-10T22:38:56.956Z,99.90
2019-04-10T22:41:38.661Z,99.90
2019-04-10T22:44:20.011Z,99.90
2019-04-10T22:47:01.573Z,99.90
2019-04-10T22:49:47.167Z,99.90
2019-04-10T22:52:28.606Z,99.90
2019-04-10T22:55:09.671Z,99.90
2019-04-10T22:57:54.846Z,99.90
2019-04-10T23:00:37.641Z,99.90
2019-04-10T23:03:20.230Z,99.90
2019-04-10T23:06:01.953Z,99.90
2019-04-10T23:08:44.048Z,99.90
2019-04-10T23:11:31.736Z,99.90
2019-04-10T23:14:10.150Z,99.90
2019-04-10T23:16:52.580Z,99.90
2019-04-10T23:19:34.296Z,99.90
2019-04-10T23:22:16.822Z,99.90
2019-04-10T23:24:56.550Z,99.90
2019-04-10T23:27:46.110Z,99.90
2019-04-10T23:30:48.842Z,99.90
2019-04-10T23:33:30.505Z,99.90
2019-04-10T23:36:12.469Z,99.90
2019-04-10T23:38:53.915Z,99.90
2019-04-10T23:41:35.825Z,99.90
2019-04-10T23:44:18.507Z,99.90
2019-04-10T23:47:00.355Z,99.90
2019-04-10T23:49:42.076Z,99.90
2019-04-10T23:52:24.075Z,99.90
2019-04-10T23:55:05.891Z,99.90
2019-04-10T23:57:47.499Z,99.90
